Colony, Kansas
Current Conditions -  °F | °C
As of 4:39 PM on Sunday 23 Nov 2014 (Local Time) from KCNU Reporting Station
Light Rain Light Rain  
Wind Chill: 50°   Ceiling: 1400
Heat Index: 50°   Visibility: 10mi
Dew Point: 47°   Wind: 23mph
Humidity: 89%   Direction: 340°NNW
Pressure: 29.36"   Gusts: 37mph
Location:  38.07°N, 95.37°W
Report Text: KCNU 232239Z AUTO 34020G32KT 10SM -RA BKN014 BKN026 OVC030 10/08 A2936 RMK AO2 PK WND 34032/2238 RAE2153B39 PRESRR P0000 T01000083
Loading
Personal Weather Stations






























Interactive Weather Map New forecast layout! Learn more

10-Day Weather Forecast

Advertisements
Track Severe Weather on mobile